createdAt,value
2023-05-04T00:00:21.169Z,1.70
2023-05-04T00:01:22.542Z,1.80
2023-05-04T00:02:24.014Z,1.97
2023-05-04T00:03:25.513Z,1.80
2023-05-04T00:04:26.960Z,2.00
2023-05-04T00:05:28.245Z,1.90
2023-05-04T00:06:29.569Z,1.80
2023-05-04T00:07:33.237Z,1.60
2023-05-04T00:08:34.518Z,1.80
2023-05-04T00:09:35.812Z,1.80
2023-05-04T00:10:37.139Z,1.73
2023-05-04T00:11:38.605Z,1.70
2023-05-04T00:12:40.096Z,2.03
2023-05-04T00:13:41.848Z,1.83
2023-05-04T00:14:43.798Z,1.70
2023-05-04T00:15:45.454Z,1.80
2023-05-04T00:16:47.151Z,1.80
2023-05-04T00:17:48.807Z,1.83
2023-05-04T00:18:50.804Z,1.80
2023-05-04T00:19:52.237Z,1.53
2023-05-04T00:20:54.708Z,1.73
2023-05-04T00:23:19.711Z,1.73
2023-05-04T00:24:24.476Z,1.80
2023-05-04T00:25:26.407Z,1.70
2023-05-04T00:26:29.518Z,1.60
2023-05-04T00:27:35.185Z,1.73
2023-05-04T00:28:36.668Z,1.80
2023-05-04T00:29:38.055Z,2.10
2023-05-04T00:30:39.552Z,1.90
2023-05-04T00:31:41.201Z,1.90
2023-05-04T00:32:45.411Z,1.70
2023-05-04T00:33:47.508Z,1.53
2023-05-04T00:34:49.326Z,1.57
2023-05-04T00:35:58.989Z,2.07
2023-05-04T00:37:01.417Z,1.83
2023-05-04T00:38:03.445Z,2.00
2023-05-04T00:39:05.107Z,1.97
2023-05-04T00:40:07.386Z,2.10
2023-05-04T00:41:09.175Z,2.03
2023-05-04T00:42:11.120Z,1.93
2023-05-04T00:43:12.839Z,2.20
2023-05-04T00:44:18.318Z,1.97
2023-05-04T00:45:20.403Z,1.80
2023-05-04T00:46:22.768Z,2.03
2023-05-04T00:47:24.391Z,1.73
2023-05-04T00:48:35.820Z,2.00
2023-05-04T00:49:38.285Z,1.90
2023-05-04T00:50:41.066Z,1.70
2023-05-04T00:51:43.209Z,1.73
2023-05-04T00:52:52.076Z,2.20
2023-05-04T00:54:00.599Z,2.00
2023-05-04T00:55:02.516Z,2.27
2023-05-04T00:56:07.901Z,1.97
2023-05-04T00:57:16.435Z,1.97
2023-05-04T00:58:21.575Z,1.90
2023-05-04T00:59:32.525Z,2.03
2023-05-04T01:00:33.992Z,1.90
2023-05-04T01:01:35.606Z,2.00
2023-05-04T01:02:37.232Z,2.10
2023-05-04T01:03:38.867Z,2.20
2023-05-04T01:04:40.377Z,1.83
2023-05-04T01:05:44.085Z,1.87
2023-05-04T01:06:50.416Z,2.30
2023-05-04T01:07:56.064Z,2.10
2023-05-04T01:09:06.680Z,2.10
2023-05-04T01:10:13.781Z,2.30
2023-05-04T01:11:19.995Z,2.40
2023-05-04T01:12:26.181Z,2.10
2023-05-04T01:13:28.114Z,2.10
2023-05-04T01:14:30.661Z,2.10
2023-05-04T01:15:32.582Z,2.10
2023-05-04T01:16:34.155Z,1.90
2023-05-04T01:17:36.620Z,2.37
2023-05-04T01:18:38.773Z,2.10
2023-05-04T01:19:43.169Z,2.10
2023-05-04T01:20:47.758Z,2.10
2023-05-04T01:21:54.645Z,2.13
2023-05-04T01:22:56.365Z,2.47
2023-05-04T01:23:58.648Z,1.90
2023-05-04T01:25:00.366Z,2.27
2023-05-04T01:26:17.242Z,2.13
2023-05-04T01:27:19.020Z,2.33
2023-05-04T01:28:23.216Z,1.93
2023-05-04T01:29:30.642Z,2.20
2023-05-04T01:30:35.951Z,2.30
2023-05-04T01:31:38.757Z,2.27
2023-05-04T01:32:41.769Z,2.33
2023-05-04T01:33:46.005Z,2.47
2023-05-04T01:34:47.922Z,2.70
2023-05-04T01:35:49.705Z,2.37
2023-05-04T01:36:52.534Z,2.20
2023-05-04T01:37:54.115Z,2.50
2023-05-04T01:38:57.937Z,2.00
2023-05-04T01:39:59.414Z,2.50
2023-05-04T01:41:01.053Z,2.20
2023-05-04T01:42:05.583Z,2.40
2023-05-04T01:43:07.077Z,2.33
2023-05-04T01:44:08.813Z,2.50
2023-05-04T01:45:10.558Z,2.30
2023-05-04T01:46:12.946Z,2.60
2023-05-04T01:47:14.539Z,2.60
2023-05-04T01:48:16.153Z,2.30
2023-05-04T01:49:17.948Z,2.43
2023-05-04T01:50:19.535Z,2.47
2023-05-04T01:51:21.259Z,2.90
2023-05-04T01:52:23.720Z,2.70
2023-05-04T01:53:25.604Z,2.70
2023-05-04T01:54:27.980Z,2.73
2023-05-04T01:55:29.308Z,2.77
2023-05-04T01:56:31.520Z,2.67
2023-05-04T01:57:33.252Z,2.40
2023-05-04T01:58:35.144Z,2.53
2023-05-04T01:59:36.681Z,2.43
2023-05-04T02:00:38.199Z,2.53
2023-05-04T02:01:39.967Z,2.80
2023-05-04T02:02:41.676Z,2.70
2023-05-04T02:03:44.627Z,2.93
2023-05-04T02:04:46.331Z,2.60
2023-05-04T02:05:48.334Z,2.60
2023-05-04T02:06:51.192Z,2.77
2023-05-04T02:07:52.804Z,2.97
2023-05-04T02:08:54.278Z,2.87
2023-05-04T02:09:56.044Z,3.03
2023-05-04T02:10:57.713Z,3.33
2023-05-04T02:11:59.347Z,3.40
2023-05-04T02:13:00.973Z,3.80
2023-05-04T02:14:02.665Z,3.73
2023-05-04T02:15:07.446Z,3.27
2023-05-04T02:16:12.066Z,3.37
2023-05-04T02:17:13.499Z,3.13
2023-05-04T02:18:15.054Z,3.10
2023-05-04T02:19:16.686Z,3.20
2023-05-04T02:20:18.614Z,3.50
2023-05-04T02:21:20.706Z,3.30
2023-05-04T02:22:22.613Z,3.50
2023-05-04T02:23:24.596Z,3.60
2023-05-04T02:24:26.496Z,3.40
2023-05-04T02:25:28.244Z,3.20
2023-05-04T02:26:36.560Z,3.60
2023-05-04T02:27:38.007Z,3.30
2023-05-04T02:28:40.213Z,3.90
2023-05-04T02:29:44.357Z,3.10
2023-05-04T02:30:46.526Z,3.50
2023-05-04T02:31:48.212Z,3.80
2023-05-04T02:33:04.627Z,3.80
2023-05-04T02:34:10.548Z,3.40
2023-05-04T02:35:26.059Z,3.13
2023-05-04T02:36:28.281Z,3.40
2023-05-04T02:37:29.744Z,3.40
2023-05-04T02:38:31.481Z,3.30
2023-05-04T02:39:32.914Z,3.47
2023-05-04T02:40:34.350Z,3.50
2023-05-04T02:41:35.801Z,3.67
2023-05-04T02:42:37.302Z,3.33
2023-05-04T02:43:38.763Z,3.40
2023-05-04T02:44:40.412Z,3.40
2023-05-04T02:45:53.267Z,3.40
2023-05-04T02:46:55.188Z,3.40
2023-05-04T02:47:56.697Z,3.43
2023-05-04T02:48:58.200Z,3.40
2023-05-04T02:49:59.760Z,3.10
2023-05-04T02:51:01.154Z,3.10
2023-05-04T02:52:03.009Z,3.53
2023-05-04T02:53:04.476Z,3.60
2023-05-04T02:54:06.774Z,3.33
2023-05-04T02:55:08.664Z,3.37
2023-05-04T02:56:10.112Z,3.10
2023-05-04T02:57:11.659Z,2.70
2023-05-04T02:58:13.389Z,3.40
2023-05-04T02:59:14.870Z,3.50
2023-05-04T03:00:16.803Z,3.10
2023-05-04T03:01:18.557Z,3.50
2023-05-04T03:02:20.834Z,3.50
2023-05-04T03:03:22.396Z,3.30
2023-05-04T03:04:23.967Z,3.10
2023-05-04T03:05:26.376Z,3.30
2023-05-04T03:06:27.861Z,3.20
2023-05-04T03:07:32.280Z,2.93
2023-05-04T03:08:33.726Z,3.07
2023-05-04T03:09:35.158Z,3.00
2023-05-04T03:10:37.066Z,3.40
2023-05-04T03:11:39.839Z,3.43
2023-05-04T03:12:41.934Z,3.33
2023-05-04T03:13:43.622Z,3.53
2023-05-04T03:14:46.286Z,3.27
2023-05-04T03:15:47.898Z,3.03
2023-05-04T03:16:49.792Z,3.23
2023-05-04T03:17:51.729Z,3.50
2023-05-04T03:18:59.314Z,3.77
2023-05-04T03:20:01.744Z,3.90
2023-05-04T03:21:05.489Z,3.90
2023-05-04T03:22:08.025Z,3.57
2023-05-04T03:23:09.424Z,3.80
2023-05-04T03:24:11.698Z,3.60
2023-05-04T03:25:13.442Z,3.67
2023-05-04T03:26:14.883Z,3.80
2023-05-04T03:27:16.318Z,3.57
2023-05-04T03:28:17.886Z,3.83
2023-05-04T03:29:19.493Z,3.67
2023-05-04T03:30:23.108Z,3.37
2023-05-04T03:31:24.949Z,3.60
2023-05-04T03:32:27.907Z,3.87
2023-05-04T03:33:29.606Z,4.00
2023-05-04T03:34:31.613Z,3.90
2023-05-04T03:35:36.972Z,3.20
2023-05-04T03:36:38.700Z,4.00
2023-05-04T03:37:40.166Z,3.93
2023-05-04T03:38:42.262Z,3.70
2023-05-04T03:39:43.766Z,4.13
2023-05-04T03:40:45.298Z,4.37
2023-05-04T03:41:49.537Z,4.30
2023-05-04T03:42:52.565Z,4.10
2023-05-04T03:43:54.327Z,4.40
2023-05-04T03:44:55.895Z,3.93
2023-05-04T03:45:57.421Z,4.00
2023-05-04T03:46:58.937Z,3.80
2023-05-04T03:48:03.239Z,4.53
2023-05-04T03:49:04.941Z,4.10
2023-05-04T03:50:07.440Z,4.23
2023-05-04T03:51:09.213Z,3.73
2023-05-04T03:52:11.005Z,3.90
2023-05-04T03:53:13.504Z,3.87
2023-05-04T03:54:15.988Z,3.80
2023-05-04T03:55:25.193Z,3.90
2023-05-04T03:56:31.488Z,4.00
2023-05-04T03:57:34.772Z,3.90
2023-05-04T03:58:36.521Z,3.70
2023-05-04T03:59:40.080Z,3.63
2023-05-04T04:00:47.287Z,4.00
2023-05-04T04:01:55.111Z,4.20
2023-05-04T04:03:09.312Z,4.00
2023-05-04T04:04:12.956Z,4.23
2023-05-04T04:05:20.252Z,4.37
2023-05-04T04:06:24.975Z,3.77
2023-05-04T04:07:33.720Z,4.43
2023-05-04T04:08:35.310Z,4.10
2023-05-04T04:09:37.495Z,4.77
2023-05-04T04:10:39.236Z,4.13
2023-05-04T04:11:40.850Z,4.47
2023-05-04T04:12:42.402Z,4.50
2023-05-04T04:13:43.752Z,4.40
2023-05-04T04:14:45.329Z,4.30
2023-05-04T04:15:50.572Z,4.60
2023-05-04T04:16:52.253Z,4.30
2023-05-04T04:17:53.646Z,4.07
2023-05-04T04:18:54.958Z,4.07
2023-05-04T04:19:56.635Z,3.60
2023-05-04T04:20:58.027Z,4.57
2023-05-04T04:21:59.957Z,4.33
2023-05-04T04:23:01.284Z,3.90
2023-05-04T04:24:02.563Z,4.23
2023-05-04T04:25:04.169Z,4.00
2023-05-04T04:26:08.608Z,4.20
2023-05-04T04:27:10.647Z,3.90
2023-05-04T04:28:12.532Z,3.97
2023-05-04T04:29:13.935Z,3.70
2023-05-04T04:30:15.381Z,3.80
2023-05-04T04:31:17.857Z,4.00
2023-05-04T04:32:19.428Z,4.10
2023-05-04T04:33:21.225Z,4.00
2023-05-04T04:34:22.681Z,3.80
2023-05-04T04:35:24.110Z,3.63
2023-05-04T04:36:25.724Z,4.67
2023-05-04T04:37:27.040Z,4.40
2023-05-04T04:38:28.408Z,3.90
2023-05-04T04:39:29.887Z,4.53
2023-05-04T04:40:31.314Z,4.13
2023-05-04T04:41:32.665Z,4.03
2023-05-04T04:42:34.156Z,3.97
2023-05-04T04:43:35.781Z,3.90
2023-05-04T04:44:37.316Z,3.63
2023-05-04T04:45:41.093Z,3.90
2023-05-04T04:46:42.401Z,4.00
2023-05-04T04:47:45.048Z,3.93
2023-05-04T04:48:47.122Z,3.97
2023-05-04T04:49:48.753Z,4.20
2023-05-04T04:50:50.082Z,4.00
2023-05-04T04:51:51.591Z,3.60
2023-05-04T04:52:53.075Z,4.10
2023-05-04T04:53:54.449Z,3.93
2023-05-04T04:54:56.684Z,3.90
2023-05-04T04:55:58.193Z,4.07
2023-05-04T04:56:59.583Z,4.87
2023-05-04T04:58:01.128Z,4.67
2023-05-04T04:59:02.434Z,4.20
2023-05-04T05:00:09.079Z,4.40
2023-05-04T05:01:10.478Z,4.50
2023-05-04T05:02:11.891Z,4.30
2023-05-04T05:03:13.572Z,4.80
2023-05-04T05:04:15.824Z,4.63
2023-05-04T05:05:18.050Z,4.70
2023-05-04T05:06:19.415Z,4.67
2023-05-04T05:07:20.989Z,4.23
2023-05-04T05:08:22.426Z,4.83
2023-05-04T05:09:23.806Z,4.17
2023-05-04T05:10:25.250Z,4.20
2023-05-04T05:11:26.660Z,4.30
2023-05-04T05:12:27.978Z,5.00
2023-05-04T05:13:30.493Z,4.33
2023-05-04T05:14:32.378Z,4.10
2023-05-04T05:15:33.733Z,4.57
2023-05-04T05:16:35.182Z,4.17
2023-05-04T05:17:37.547Z,4.10
2023-05-04T05:18:39.074Z,4.17
2023-05-04T05:19:42.211Z,4.10
2023-05-04T05:20:43.694Z,4.03
2023-05-04T05:21:44.973Z,3.73
2023-05-04T05:22:48.513Z,3.83
2023-05-04T05:23:58.177Z,4.10
2023-05-04T05:24:59.763Z,4.40
2023-05-04T05:26:03.164Z,4.03
2023-05-04T05:27:04.726Z,4.00
2023-05-04T05:28:06.030Z,4.50
2023-05-04T05:29:08.328Z,3.90
2023-05-04T05:30:09.749Z,3.70
2023-05-04T05:31:11.582Z,4.17
2023-05-04T05:32:13.023Z,4.30
2023-05-04T05:33:14.408Z,3.87
2023-05-04T05:34:16.154Z,4.00
2023-05-04T05:35:17.573Z,3.77
2023-05-04T05:36:18.928Z,4.00
2023-05-04T05:37:20.287Z,4.20
2023-05-04T05:38:21.676Z,4.30
2023-05-04T05:39:23.579Z,6.30
2023-05-04T05:40:24.893Z,5.53
2023-05-04T05:41:26.283Z,4.57
2023-05-04T05:42:28.963Z,3.77
2023-05-04T05:43:30.316Z,3.90
2023-05-04T05:44:31.625Z,3.90
2023-05-04T05:45:32.997Z,4.10
2023-05-04T05:46:34.389Z,4.77
2023-05-04T05:47:36.754Z,4.03
2023-05-04T05:48:38.396Z,4.00
2023-05-04T05:49:39.753Z,4.37
2023-05-04T05:50:41.454Z,4.40
2023-05-04T05:51:42.945Z,4.00
2023-05-04T05:52:44.351Z,4.23
2023-05-04T05:53:45.747Z,4.30
2023-05-04T05:54:47.081Z,4.40
2023-05-04T05:55:48.462Z,4.73
2023-05-04T05:56:49.794Z,4.80
2023-05-04T05:57:51.528Z,4.90
2023-05-04T05:58:52.848Z,5.53
2023-05-04T05:59:54.544Z,5.60
2023-05-04T06:00:55.986Z,5.60
2023-05-04T06:01:57.385Z,5.27
2023-05-04T06:02:58.795Z,5.20
2023-05-04T06:04:00.595Z,5.10
2023-05-04T06:05:02.512Z,5.47
2023-05-04T06:06:03.987Z,4.97
2023-05-04T06:07:05.364Z,5.37
2023-05-04T06:08:06.782Z,5.20
2023-05-04T06:09:08.170Z,5.40
2023-05-04T06:10:10.608Z,5.10
2023-05-04T06:11:12.080Z,5.00
2023-05-04T06:12:15.120Z,5.20
2023-05-04T06:13:16.722Z,4.87
2023-05-04T06:14:18.138Z,5.00
2023-05-04T06:15:19.603Z,5.17
2023-05-04T06:16:20.963Z,4.70
2023-05-04T06:17:22.254Z,4.20
2023-05-04T06:18:23.643Z,4.80
2023-05-04T06:19:25.629Z,4.27
2023-05-04T06:20:27.213Z,4.23
2023-05-04T06:21:28.551Z,4.07
2023-05-04T06:22:31.275Z,4.23
2023-05-04T06:23:32.640Z,4.00
2023-05-04T06:24:33.944Z,3.90
2023-05-04T06:25:35.702Z,4.17
2023-05-04T06:26:37.036Z,4.32
2023-05-04T06:27:38.360Z,4.47
2023-05-04T06:28:39.682Z,4.35
2023-05-04T06:29:41.453Z,4.30
2023-05-04T06:30:44.786Z,4.20
2023-05-04T06:31:48.264Z,4.20
2023-05-04T06:32:54.043Z,4.67
2023-05-04T06:33:55.699Z,4.35
2023-05-04T06:34:57.285Z,4.32
2023-05-04T06:35:58.612Z,4.13
2023-05-04T06:36:59.927Z,4.22
2023-05-04T06:38:01.293Z,4.30
2023-05-04T06:39:02.782Z,3.78
2023-05-04T06:40:05.109Z,4.25
2023-05-04T06:41:06.901Z,4.53
2023-05-04T06:42:08.267Z,4.25
2023-05-04T06:43:12.703Z,4.35
2023-05-04T06:44:14.242Z,4.30
2023-05-04T06:45:15.569Z,4.22
2023-05-04T06:46:17.055Z,4.50
2023-05-04T06:47:18.384Z,4.60
2023-05-04T06:48:19.700Z,5.07
2023-05-04T06:49:21.016Z,4.38
2023-05-04T06:50:23.885Z,4.70
2023-05-04T06:51:25.306Z,5.53
2023-05-04T06:52:29.549Z,4.57
2023-05-04T06:53:30.863Z,4.93
2023-05-04T06:54:32.552Z,5.00
2023-05-04T06:55:34.017Z,4.70
2023-05-04T06:56:35.325Z,4.85
2023-05-04T06:57:36.792Z,4.63
2023-05-04T06:58:38.100Z,5.38
2023-05-04T06:59:39.409Z,5.20
2023-05-04T07:00:41.626Z,5.22
2023-05-04T07:01:42.988Z,4.97
2023-05-04T07:02:44.385Z,5.10
2023-05-04T07:03:45.730Z,5.40
2023-05-04T07:04:47.053Z,5.80
2023-05-04T07:05:50.391Z,5.85
2023-05-04T07:06:52.125Z,5.38
2023-05-04T07:07:53.584Z,5.63
2023-05-04T07:08:54.936Z,5.35
2023-05-04T07:09:56.273Z,6.00
2023-05-04T07:10:58.210Z,5.25
2023-05-04T07:11:59.561Z,5.38
2023-05-04T07:13:01.866Z,5.68
2023-05-04T07:14:03.202Z,5.85
2023-05-04T07:15:06.696Z,5.15
2023-05-04T07:16:09.022Z,5.32
2023-05-04T07:17:10.612Z,5.28
2023-05-04T07:18:12.615Z,5.65
2023-05-04T07:19:14.356Z,6.05
2023-05-04T07:20:15.969Z,5.97
2023-05-04T07:21:27.446Z,5.45
2023-05-04T07:22:29.722Z,6.00
2023-05-04T07:23:31.023Z,5.22
2023-05-04T07:24:32.479Z,5.60
2023-05-04T07:25:34.544Z,6.43
2023-05-04T07:26:36.409Z,5.88
2023-05-04T07:27:38.060Z,5.70
2023-05-04T07:28:40.055Z,5.70
2023-05-04T07:29:41.658Z,6.20
2023-05-04T07:30:42.952Z,5.82
2023-05-04T07:31:44.272Z,5.95
2023-05-04T07:32:46.356Z,5.50
2023-05-04T07:33:47.930Z,5.18
2023-05-04T07:34:49.248Z,5.68
2023-05-04T07:35:50.584Z,6.05
2023-05-04T07:36:51.901Z,5.45
2023-05-04T07:37:54.068Z,5.47
2023-05-04T07:38:55.556Z,6.07
2023-05-04T07:40:00.123Z,6.15
2023-05-04T07:41:01.467Z,6.22
2023-05-04T07:42:03.946Z,5.80
2023-05-04T07:43:05.726Z,5.85
2023-05-04T07:44:08.677Z,6.35
2023-05-04T07:45:10.457Z,5.97
2023-05-04T07:46:12.494Z,5.82
2023-05-04T07:47:13.813Z,5.53
2023-05-04T07:48:15.904Z,5.70
2023-05-04T07:49:18.462Z,5.88
2023-05-04T07:50:19.901Z,5.80
2023-05-04T07:51:21.219Z,5.80
2023-05-04T07:52:22.724Z,5.95
2023-05-04T07:53:26.094Z,5.97
2023-05-04T07:54:27.439Z,6.10
2023-05-04T07:55:29.622Z,5.57
2023-05-04T07:56:31.038Z,5.63
2023-05-04T07:57:33.389Z,5.43
2023-05-04T07:58:34.690Z,5.60
2023-05-04T07:59:35.977Z,5.75
2023-05-04T08:00:37.346Z,5.75
2023-05-04T08:01:38.691Z,6.18
2023-05-04T08:02:40.320Z,5.78
2023-05-04T08:03:41.742Z,5.57
2023-05-04T08:04:43.071Z,5.68
2023-05-04T08:05:44.393Z,5.15
2023-05-04T08:06:46.487Z,5.78
2023-05-04T08:07:47.847Z,5.95
2023-05-04T08:08:51.966Z,5.30
2023-05-04T08:09:55.752Z,5.43
2023-05-04T08:11:08.036Z,5.32
2023-05-04T08:12:13.615Z,4.78
2023-05-04T08:13:15.181Z,5.18
2023-05-04T08:14:16.715Z,5.10
2023-05-04T08:15:18.215Z,5.22
2023-05-04T08:16:19.506Z,5.10
2023-05-04T08:17:20.836Z,5.45
2023-05-04T08:18:22.131Z,5.53
2023-05-04T08:19:24.706Z,5.78
2023-05-04T08:20:26.151Z,5.63
2023-05-04T08:21:27.930Z,6.20
2023-05-04T08:22:29.278Z,5.63
2023-05-04T08:23:31.437Z,5.38
2023-05-04T08:24:32.925Z,5.50
2023-05-04T08:25:34.335Z,5.72
2023-05-04T08:26:39.012Z,5.47
2023-05-04T08:27:40.386Z,5.50
2023-05-04T08:28:41.723Z,5.53
2023-05-04T08:29:43.009Z,5.45
2023-05-04T08:30:44.320Z,4.97
2023-05-04T08:31:45.696Z,5.72
2023-05-04T08:32:48.351Z,5.35
2023-05-04T08:33:49.701Z,5.45
2023-05-04T08:34:51.780Z,5.40
2023-05-04T08:35:53.125Z,5.90
2023-05-04T08:36:54.648Z,5.30
2023-05-04T08:37:56.309Z,5.32
2023-05-04T08:38:57.650Z,5.20
2023-05-04T08:39:58.953Z,5.70
2023-05-04T08:41:06.560Z,5.45
2023-05-04T08:42:08.069Z,5.00
2023-05-04T08:43:09.851Z,4.95
2023-05-04T08:44:11.508Z,5.47
2023-05-04T08:45:13.060Z,5.03
2023-05-04T08:46:15.573Z,5.50
2023-05-04T08:47:17.048Z,5.15
2023-05-04T08:48:18.670Z,5.13
2023-05-04T08:49:20.316Z,5.72
2023-05-04T08:50:21.764Z,4.97
2023-05-04T08:51:23.245Z,4.82
2023-05-04T08:52:25.358Z,5.47
2023-05-04T08:53:27.018Z,5.55
2023-05-04T08:54:28.853Z,5.05
2023-05-04T08:55:32.070Z,5.38
2023-05-04T08:56:35.658Z,4.93
2023-05-04T08:57:37.069Z,4.65
2023-05-04T08:58:43.779Z,5.60
2023-05-04T08:59:48.282Z,5.20
2023-05-04T09:00:49.929Z,5.15
2023-05-04T09:01:55.557Z,5.10
2023-05-04T09:02:59.662Z,4.93
2023-05-04T09:04:02.177Z,4.88
2023-05-04T09:05:04.459Z,4.85
2023-05-04T09:06:07.171Z,4.82
2023-05-04T09:07:08.515Z,4.53
2023-05-04T09:08:09.954Z,5.05
2023-05-04T09:09:11.294Z,5.30
2023-05-04T09:10:12.623Z,5.40
2023-05-04T09:11:14.006Z,5.10
2023-05-04T09:12:16.845Z,5.07
2023-05-04T09:13:18.225Z,4.75
2023-05-04T09:14:21.607Z,4.72
2023-05-04T09:15:23.517Z,5.03
2023-05-04T09:16:33.213Z,4.70
2023-05-04T09:17:36.374Z,4.70
2023-05-04T09:18:39.933Z,5.75
2023-05-04T09:19:43.950Z,4.90
2023-05-04T09:20:46.815Z,5.53
2023-05-04T09:21:49.717Z,5.30
2023-05-04T09:22:59.661Z,5.30
2023-05-04T09:24:01.029Z,5.20
2023-05-04T09:25:12.322Z,5.07
2023-05-04T09:26:13.752Z,5.53
2023-05-04T09:27:18.558Z,5.53
2023-05-04T09:28:21.527Z,4.50
2023-05-04T09:29:25.490Z,4.70
2023-05-04T09:30:29.718Z,4.35
2023-05-04T09:31:41.335Z,5.43
2023-05-04T09:32:49.491Z,5.35
2023-05-04T09:33:53.277Z,5.50
2023-05-04T09:34:54.857Z,4.70
2023-05-04T09:35:58.158Z,5.60
2023-05-04T09:37:01.532Z,5.78
2023-05-04T09:38:03.862Z,5.18
2023-05-04T09:39:11.539Z,5.38
2023-05-04T09:40:13.438Z,5.13
2023-05-04T09:41:14.776Z,5.75
2023-05-04T09:42:16.895Z,5.47
2023-05-04T09:43:18.821Z,5.53
2023-05-04T09:44:21.355Z,5.20
2023-05-04T09:45:22.688Z,4.93
2023-05-04T09:46:24.320Z,5.30
2023-05-04T09:47:54.116Z,5.20
2023-05-04T09:48:56.810Z,5.13
2023-05-04T09:49:58.237Z,5.70
2023-05-04T09:51:00.342Z,5.82
2023-05-04T09:52:02.774Z,5.20
2023-05-04T09:53:05.151Z,5.03
2023-05-04T09:54:06.518Z,5.38
2023-05-04T09:55:09.919Z,4.80
2023-05-04T09:56:27.391Z,4.65
2023-05-04T09:57:28.708Z,4.72
2023-05-04T09:58:30.452Z,5.30
2023-05-04T09:59:32.370Z,4.90
2023-05-04T10:00:35.429Z,4.82
2023-05-04T10:01:37.590Z,4.82
2023-05-04T10:02:39.791Z,4.63
2023-05-04T10:03:42.312Z,5.38
2023-05-04T10:04:43.932Z,5.13
2023-05-04T10:05:45.398Z,4.88
2023-05-04T10:06:46.761Z,5.00
2023-05-04T10:07:48.082Z,5.28
2023-05-04T10:08:50.119Z,5.28
2023-05-04T10:09:51.788Z,5.60
2023-05-04T10:10:53.369Z,5.15
2023-05-04T10:11:55.613Z,5.00
2023-05-04T10:12:56.950Z,5.70
2023-05-04T10:13:58.408Z,5.10
2023-05-04T10:15:01.216Z,5.30
2023-05-04T10:16:09.457Z,4.75
2023-05-04T10:17:17.853Z,4.18
2023-05-04T10:18:35.248Z,4.20
2023-05-04T10:19:43.496Z,4.10
2023-05-04T10:21:02.652Z,4.30
2023-05-04T10:22:22.677Z,4.50
2023-05-04T10:23:36.830Z,4.03
2023-05-04T10:24:51.128Z,4.10
2023-05-04T10:26:04.827Z,4.85
2023-05-04T10:27:12.042Z,4.70
2023-05-04T10:28:13.340Z,4.43
2023-05-04T10:29:24.527Z,4.22
2023-05-04T10:30:26.033Z,4.40
2023-05-04T10:31:36.774Z,4.22
2023-05-04T10:32:39.986Z,5.00
2023-05-04T10:33:41.976Z,4.95
2023-05-04T10:34:43.329Z,4.60
2023-05-04T10:35:52.044Z,4.65
2023-05-04T10:36:53.442Z,4.70
2023-05-04T10:37:56.080Z,5.15
2023-05-04T10:38:57.436Z,5.15
2023-05-04T10:39:58.784Z,5.20
2023-05-04T10:41:00.267Z,5.55
2023-05-04T10:42:02.433Z,4.80
2023-05-04T10:43:04.338Z,4.88
2023-05-04T10:44:06.120Z,4.40
2023-05-04T10:45:09.245Z,6.30
2023-05-04T10:46:17.594Z,5.15
2023-05-04T10:47:35.483Z,4.93
2023-05-04T10:48:36.848Z,4.75
2023-05-04T10:49:38.405Z,4.70
2023-05-04T10:50:46.102Z,4.97
2023-05-04T10:51:49.588Z,5.45
2023-05-04T10:52:53.907Z,5.03
2023-05-04T10:53:55.346Z,4.93
2023-05-04T10:55:01.281Z,5.28
2023-05-04T10:56:02.799Z,6.15
2023-05-04T10:57:09.089Z,5.50
2023-05-04T10:58:14.671Z,7.00
2023-05-04T10:59:16.200Z,5.93
2023-05-04T11:00:18.248Z,5.60
2023-05-04T11:01:20.259Z,5.03
2023-05-04T11:02:22.415Z,5.38
2023-05-04T11:03:24.968Z,5.38
2023-05-04T11:04:26.772Z,4.88
2023-05-04T11:05:39.518Z,5.05
2023-05-04T11:06:40.878Z,5.28
2023-05-04T11:07:42.168Z,4.65
2023-05-04T11:08:43.627Z,5.03
2023-05-04T11:09:45.010Z,4.43
2023-05-04T11:10:47.808Z,5.00
2023-05-04T11:11:49.311Z,4.82
2023-05-04T11:12:50.945Z,4.53
2023-05-04T11:13:52.316Z,4.75
2023-05-04T11:15:03.518Z,5.15
2023-05-04T11:16:05.147Z,4.97
2023-05-04T11:17:16.082Z,5.18
2023-05-04T11:18:28.922Z,4.75
2023-05-04T11:19:30.339Z,4.40
2023-05-04T11:20:31.737Z,4.85
2023-05-04T11:21:33.155Z,4.80
2023-05-04T11:22:34.553Z,4.78
2023-05-04T11:23:36.473Z,4.90
2023-05-04T11:24:42.456Z,4.68
2023-05-04T11:25:43.778Z,5.35
2023-05-04T11:26:47.080Z,4.03
2023-05-04T11:27:50.038Z,5.03
2023-05-04T11:28:51.804Z,4.97
2023-05-04T11:30:04.307Z,5.10
2023-05-04T11:31:12.753Z,4.57
2023-05-04T11:32:14.133Z,4.38
2023-05-04T11:33:16.144Z,5.72
2023-05-04T11:34:23.534Z,5.20
2023-05-04T11:35:27.957Z,5.25
2023-05-04T11:36:29.360Z,4.40
2023-05-04T11:37:31.454Z,5.03
2023-05-04T11:38:32.757Z,4.25
2023-05-04T11:39:34.069Z,4.53
2023-05-04T11:40:36.148Z,4.38
2023-05-04T11:41:37.733Z,4.40
2023-05-04T11:42:40.091Z,4.35
2023-05-04T11:43:42.689Z,4.72
2023-05-04T11:44:44.152Z,4.60
2023-05-04T11:45:47.742Z,4.65
2023-05-04T11:46:51.516Z,4.60
2023-05-04T11:47:53.463Z,4.38
2023-05-04T11:48:54.958Z,4.68
2023-05-04T11:49:56.266Z,5.00
2023-05-04T11:50:58.332Z,5.30
2023-05-04T11:52:08.928Z,5.40
2023-05-04T11:53:12.163Z,5.05
2023-05-04T11:54:21.567Z,4.82
2023-05-04T11:55:27.452Z,5.05
2023-05-04T11:56:28.866Z,5.85
2023-05-04T11:57:33.852Z,4.60
2023-05-04T11:58:35.418Z,4.60
2023-05-04T11:59:36.744Z,4.60
2023-05-04T12:00:44.029Z,4.53
2023-05-04T12:01:45.404Z,4.75
2023-05-04T12:02:46.812Z,4.88
2023-05-04T12:03:53.799Z,5.15
2023-05-04T12:04:55.903Z,5.10
2023-05-04T12:05:57.977Z,5.50
2023-05-04T12:07:01.663Z,5.35
2023-05-04T12:08:03.572Z,4.68
2023-05-04T12:09:08.611Z,4.78
2023-05-04T12:10:10.116Z,4.85
2023-05-04T12:11:13.031Z,5.25
2023-05-04T12:12:19.078Z,5.18
2023-05-04T12:13:20.661Z,4.72
2023-05-04T12:14:24.277Z,4.13
2023-05-04T12:15:29.005Z,4.13
2023-05-04T12:16:30.701Z,5.05
2023-05-04T12:17:42.094Z,4.07
2023-05-04T12:18:45.301Z,4.28
2023-05-04T12:19:51.021Z,4.65
2023-05-04T12:20:52.567Z,4.43
2023-05-04T12:21:54.575Z,4.47
2023-05-04T12:23:05.275Z,4.63
2023-05-04T12:24:07.002Z,4.68
2023-05-04T12:25:09.283Z,5.30
2023-05-04T12:26:11.606Z,5.90
2023-05-04T12:27:13.923Z,5.10
2023-05-04T12:28:16.108Z,5.43
2023-05-04T12:29:17.450Z,4.53
2023-05-04T12:30:18.885Z,5.60
2023-05-04T12:31:21.637Z,5.13
2023-05-04T12:32:24.424Z,5.10
2023-05-04T12:33:26.322Z,4.70
2023-05-04T12:34:27.700Z,4.95
2023-05-04T12:35:29.093Z,5.07
2023-05-04T12:36:30.485Z,5.43
2023-05-04T12:37:31.842Z,5.20
2023-05-04T12:38:33.815Z,3.83
2023-05-04T12:39:35.461Z,5.03
2023-05-04T12:40:37.326Z,4.95
2023-05-04T12:41:38.888Z,4.45
2023-05-04T12:42:42.230Z,4.05
2023-05-04T12:43:43.549Z,4.15
2023-05-04T12:44:44.877Z,3.47
2023-05-04T12:45:46.405Z,3.03
2023-05-04T12:46:47.784Z,3.63
2023-05-04T12:47:49.281Z,3.55
2023-05-04T12:48:50.695Z,3.53
2023-05-04T12:49:52.082Z,3.40
2023-05-04T12:50:53.612Z,2.70
2023-05-04T12:51:55.046Z,2.85
2023-05-04T12:52:56.611Z,2.90
2023-05-04T12:53:58.299Z,3.80
2023-05-04T12:54:59.815Z,4.78
2023-05-04T12:56:01.784Z,4.05
2023-05-04T12:57:03.451Z,3.65
2023-05-04T12:58:04.794Z,4.18
2023-05-04T12:59:06.108Z,3.70
2023-05-04T13:00:09.907Z,3.70
2023-05-04T13:01:11.489Z,4.63
2023-05-04T13:02:13.129Z,4.57
2023-05-04T13:03:16.873Z,3.95
2023-05-04T13:04:18.400Z,4.05
2023-05-04T13:05:20.870Z,3.97
2023-05-04T13:06:22.688Z,3.45
2023-05-04T13:07:24.285Z,3.10
2023-05-04T13:08:25.687Z,3.40
2023-05-04T13:09:27.494Z,3.33
2023-05-04T13:10:28.931Z,3.55
2023-05-04T13:11:30.296Z,3.60
2023-05-04T13:12:31.845Z,3.20
2023-05-04T13:13:34.179Z,3.50
2023-05-04T13:14:39.537Z,3.92
2023-05-04T13:15:41.624Z,3.28
2023-05-04T13:16:43.059Z,3.72
2023-05-04T13:17:45.084Z,3.28
2023-05-04T13:18:46.463Z,3.40
2023-05-04T13:19:48.144Z,3.50
2023-05-04T13:20:50.627Z,3.85
2023-05-04T13:21:52.415Z,3.50
2023-05-04T13:22:54.946Z,4.25
2023-05-04T13:23:59.306Z,3.42
2023-05-04T13:25:00.704Z,3.45
2023-05-04T13:26:02.049Z,3.72
2023-05-04T13:27:03.397Z,3.50
2023-05-04T13:28:04.725Z,3.33
2023-05-04T13:29:06.098Z,3.70
2023-05-04T13:30:08.579Z,3.13
2023-05-04T13:31:10.476Z,3.38
2023-05-04T13:32:11.815Z,2.97
2023-05-04T13:33:27.414Z,2.75
2023-05-04T13:34:29.937Z,2.50
2023-05-04T13:35:31.369Z,3.00
2023-05-04T13:36:32.855Z,3.17
2023-05-04T13:37:34.228Z,3.00
2023-05-04T13:38:35.866Z,3.00
2023-05-04T13:39:44.190Z,2.70
2023-05-04T13:40:45.540Z,2.67
2023-05-04T13:41:47.016Z,2.63
2023-05-04T13:42:48.589Z,2.88
2023-05-04T13:43:50.009Z,2.63
2023-05-04T13:44:51.350Z,2.50
2023-05-04T13:45:52.808Z,2.80
2023-05-04T13:46:54.181Z,2.70
2023-05-04T13:47:55.756Z,2.60
2023-05-04T13:48:57.258Z,2.90
2023-05-04T13:49:58.671Z,3.00
2023-05-04T13:51:02.099Z,2.72
2023-05-04T13:52:03.812Z,3.17
2023-05-04T13:53:05.159Z,3.20
2023-05-04T13:54:06.478Z,2.90
2023-05-04T13:55:08.229Z,3.25
2023-05-04T13:56:10.105Z,3.42
2023-05-04T13:57:11.406Z,3.03